sensor_id;sensor_type;location;lat;lon;timestamp;temperature;humidity
8707;DHT22;4390;49.302;9.306;2023-04-03T00:00:38;4.80;85.40
8707;DHT22;4390;49.302;9.306;2023-04-03T00:03:05;4.80;85.70
8707;DHT22;4390;49.302;9.306;2023-04-03T00:05:32;4.70;85.50
8707;DHT22;4390;49.302;9.306;2023-04-03T00:08:22;4.60;85.60
8707;DHT22;4390;49.302;9.306;2023-04-03T00:11:07;4.60;85.70
8707;DHT22;4390;49.302;9.306;2023-04-03T00:13:35;4.80;85.70
8707;DHT22;4390;49.302;9.306;2023-04-03T00:16:08;4.90;85.10
8707;DHT22;4390;49.302;9.306;2023-04-03T00:18:37;4.90;84.80
8707;DHT22;4390;49.302;9.306;2023-04-03T00:21:04;4.90;84.80
8707;DHT22;4390;49.302;9.306;2023-04-03T00:23:31;4.80;85.20
8707;DHT22;4390;49.302;9.306;2023-04-03T00:25:58;4.50;85.80
8707;DHT22;4390;49.302;9.306;2023-04-03T00:28:25;4.20;86.40
8707;DHT22;4390;49.302;9.306;2023-04-03T00:30:53;4.00;87.30
8707;DHT22;4390;49.302;9.306;2023-04-03T00:33:20;3.90;87.60
8707;DHT22;4390;49.302;9.306;2023-04-03T00:35:51;4.00;87.40
8707;DHT22;4390;49.302;9.306;2023-04-03T00:38:18;4.10;87.30
8707;DHT22;4390;49.302;9.306;2023-04-03T00:40:47;4.10;87.30
8707;DHT22;4390;49.302;9.306;2023-04-03T00:43:24;4.30;87.20
8707;DHT22;4390;49.302;9.306;2023-04-03T00:45:55;4.40;86.60
8707;DHT22;4390;49.302;9.306;2023-04-03T00:48:28;4.50;86.60
8707;DHT22;4390;49.302;9.306;2023-04-03T00:50:58;4.50;86.00
8707;DHT22;4390;49.302;9.306;2023-04-03T00:53:32;4.40;86.60
8707;DHT22;4390;49.302;9.306;2023-04-03T00:56:00;4.40;86.70
8707;DHT22;4390;49.302;9.306;2023-04-03T00:58:34;4.40;86.70
8707;DHT22;4390;49.302;9.306;2023-04-03T01:01:06;4.50;86.90
8707;DHT22;4390;49.302;9.306;2023-04-03T01:03:35;4.50;86.00
8707;DHT22;4390;49.302;9.306;2023-04-03T01:06:04;4.60;86.40
8707;DHT22;4390;49.302;9.306;2023-04-03T01:08:31;4.80;86.20
8707;DHT22;4390;49.302;9.306;2023-04-03T01:10:58;4.80;86.00
8707;DHT22;4390;49.302;9.306;2023-04-03T01:13:31;4.70;86.00
8707;DHT22;4390;49.302;9.306;2023-04-03T01:16:03;4.70;86.30
8707;DHT22;4390;49.302;9.306;2023-04-03T01:18:33;4.90;86.30
8707;DHT22;4390;49.302;9.306;2023-04-03T01:26:10;4.90;85.90
8707;DHT22;4390;49.302;9.306;2023-04-03T01:32:18;4.90;86.40
8707;DHT22;4390;49.302;9.306;2023-04-03T01:34:44;4.70;86.00
8707;DHT22;4390;49.302;9.306;2023-04-03T01:37:11;4.80;86.60
8707;DHT22;4390;49.302;9.306;2023-04-03T01:39:39;4.90;86.40
8707;DHT22;4390;49.302;9.306;2023-04-03T01:42:06;4.90;86.10
8707;DHT22;4390;49.302;9.306;2023-04-03T01:44:37;4.70;85.90
8707;DHT22;4390;49.302;9.306;2023-04-03T01:47:06;4.60;86.30
8707;DHT22;4390;49.302;9.306;2023-04-03T01:49:33;4.50;86.50
8707;DHT22;4390;49.302;9.306;2023-04-03T01:52:00;4.50;86.40
8707;DHT22;4390;49.302;9.306;2023-04-03T01:54:27;4.70;86.30
8707;DHT22;4390;49.302;9.306;2023-04-03T01:56:54;4.70;86.10
8707;DHT22;4390;49.302;9.306;2023-04-03T01:59:21;4.70;86.10
8707;DHT22;4390;49.302;9.306;2023-04-03T02:01:48;4.50;86.20
8707;DHT22;4390;49.302;9.306;2023-04-03T02:04:15;4.40;86.60
8707;DHT22;4390;49.302;9.306;2023-04-03T02:06:42;4.40;86.60
8707;DHT22;4390;49.302;9.306;2023-04-03T02:09:08;4.60;86.50
8707;DHT22;4390;49.302;9.306;2023-04-03T02:11:35;4.60;86.10
8707;DHT22;4390;49.302;9.306;2023-04-03T02:14:02;4.40;86.50
8707;DHT22;4390;49.302;9.306;2023-04-03T02:16:29;4.40;87.00
8707;DHT22;4390;49.302;9.306;2023-04-03T02:18:57;4.50;86.40
8707;DHT22;4390;49.302;9.306;2023-04-03T02:21:24;4.60;86.40
8707;DHT22;4390;49.302;9.306;2023-04-03T02:23:51;4.60;86.20
8707;DHT22;4390;49.302;9.306;2023-04-03T02:26:18;4.50;86.30
8707;DHT22;4390;49.302;9.306;2023-04-03T02:28:45;4.60;86.20
8707;DHT22;4390;49.302;9.306;2023-04-03T02:31:12;4.60;86.40
8707;DHT22;4390;49.302;9.306;2023-04-03T02:33:41;4.70;86.40
8707;DHT22;4390;49.302;9.306;2023-04-03T02:36:10;4.70;86.10
8707;DHT22;4390;49.302;9.306;2023-04-03T02:38:39;4.70;86.10
8707;DHT22;4390;49.302;9.306;2023-04-03T02:41:10;4.60;86.00
8707;DHT22;4390;49.302;9.306;2023-04-03T02:43:37;4.60;86.20
8707;DHT22;4390;49.302;9.306;2023-04-03T02:46:06;4.60;85.90
8707;DHT22;4390;49.302;9.306;2023-04-03T02:48:33;4.70;86.00
8707;DHT22;4390;49.302;9.306;2023-04-03T02:51:00;4.60;86.10
8707;DHT22;4390;49.302;9.306;2023-04-03T02:53:27;4.50;85.90
8707;DHT22;4390;49.302;9.306;2023-04-03T02:55:54;4.50;86.00
8707;DHT22;4390;49.302;9.306;2023-04-03T02:58:20;4.40;86.00
8707;DHT22;4390;49.302;9.306;2023-04-03T03:00:47;4.30;86.00
8707;DHT22;4390;49.302;9.306;2023-04-03T03:03:14;4.30;85.60
8707;DHT22;4390;49.302;9.306;2023-04-03T03:05:41;4.00;86.00
8707;DHT22;4390;49.302;9.306;2023-04-03T03:08:08;3.90;86.50
8707;DHT22;4390;49.302;9.306;2023-04-03T03:10:34;3.90;86.60
8707;DHT22;4390;49.302;9.306;2023-04-03T03:13:01;3.80;86.70
8707;DHT22;4390;49.302;9.306;2023-04-03T03:15:29;3.60;86.80
8707;DHT22;4390;49.302;9.306;2023-04-03T03:17:55;3.50;87.20
8707;DHT22;4390;49.302;9.306;2023-04-03T03:20:22;3.50;87.00
8707;DHT22;4390;49.302;9.306;2023-04-03T03:22:49;3.20;87.40
8707;DHT22;4390;49.302;9.306;2023-04-03T03:25:16;3.00;87.90
8707;DHT22;4390;49.302;9.306;2023-04-03T03:27:42;2.70;88.30
8707;DHT22;4390;49.302;9.306;2023-04-03T03:30:09;2.60;89.00
8707;DHT22;4390;49.302;9.306;2023-04-03T03:32:36;2.70;89.00
8707;DHT22;4390;49.302;9.306;2023-04-03T03:35:03;2.70;89.10
8707;DHT22;4390;49.302;9.306;2023-04-03T03:37:30;2.80;89.10
8707;DHT22;4390;49.302;9.306;2023-04-03T03:39:57;2.90;88.90
8707;DHT22;4390;49.302;9.306;2023-04-03T03:42:24;2.90;88.80
8707;DHT22;4390;49.302;9.306;2023-04-03T03:44:51;3.00;88.80
8707;DHT22;4390;49.302;9.306;2023-04-03T03:47:19;2.90;88.70
8707;DHT22;4390;49.302;9.306;2023-04-03T03:49:45;2.90;88.80
8707;DHT22;4390;49.302;9.306;2023-04-03T03:52:13;3.00;88.70
8707;DHT22;4390;49.302;9.306;2023-04-03T03:54:40;3.10;88.50
8707;DHT22;4390;49.302;9.306;2023-04-03T03:57:06;3.10;88.50
8707;DHT22;4390;49.302;9.306;2023-04-03T03:59:33;3.00;88.40
8707;DHT22;4390;49.302;9.306;2023-04-03T04:02:00;2.90;88.50
8707;DHT22;4390;49.302;9.306;2023-04-03T04:04:27;3.00;88.50
8707;DHT22;4390;49.302;9.306;2023-04-03T04:06:54;2.90;88.70
8707;DHT22;4390;49.302;9.306;2023-04-03T04:09:22;2.90;88.90
8707;DHT22;4390;49.302;9.306;2023-04-03T04:11:49;2.90;89.00
8707;DHT22;4390;49.302;9.306;2023-04-03T04:14:16;3.00;88.80
8707;DHT22;4390;49.302;9.306;2023-04-03T04:16:43;3.00;88.60
8707;DHT22;4390;49.302;9.306;2023-04-03T04:19:15;2.90;88.80
8707;DHT22;4390;49.302;9.306;2023-04-03T04:21:44;2.80;89.00
8707;DHT22;4390;49.302;9.306;2023-04-03T04:24:11;2.80;89.10
8707;DHT22;4390;49.302;9.306;2023-04-03T04:26:38;2.70;89.20
8707;DHT22;4390;49.302;9.306;2023-04-03T04:29:08;2.60;89.20
8707;DHT22;4390;49.302;9.306;2023-04-03T04:31:35;2.50;89.40
8707;DHT22;4390;49.302;9.306;2023-04-03T04:34:02;2.40;89.60
8707;DHT22;4390;49.302;9.306;2023-04-03T04:36:29;2.50;89.60
8707;DHT22;4390;49.302;9.306;2023-04-03T04:38:57;2.50;89.40
8707;DHT22;4390;49.302;9.306;2023-04-03T04:41:26;2.40;89.60
8707;DHT22;4390;49.302;9.306;2023-04-03T04:43:53;2.30;89.30
8707;DHT22;4390;49.302;9.306;2023-04-03T04:46:21;2.30;89.70
8707;DHT22;4390;49.302;9.306;2023-04-03T04:48:53;2.40;89.70
8707;DHT22;4390;49.302;9.306;2023-04-03T04:51:22;2.40;89.80
8707;DHT22;4390;49.302;9.306;2023-04-03T04:53:48;2.30;89.90
8707;DHT22;4390;49.302;9.306;2023-04-03T04:56:18;2.30;89.80
8707;DHT22;4390;49.302;9.306;2023-04-03T04:58:45;2.30;89.90
8707;DHT22;4390;49.302;9.306;2023-04-03T05:01:18;2.20;90.10
8707;DHT22;4390;49.302;9.306;2023-04-03T05:04:01;2.10;90.60
8707;DHT22;4390;49.302;9.306;2023-04-03T05:06:29;2.20;90.50
8707;DHT22;4390;49.302;9.306;2023-04-03T05:08:59;2.10;90.60
8707;DHT22;4390;49.302;9.306;2023-04-03T05:11:27;2.00;90.70
8707;DHT22;4390;49.302;9.306;2023-04-03T05:13:54;2.10;90.90
8707;DHT22;4390;49.302;9.306;2023-04-03T05:16:23;2.00;91.00
8707;DHT22;4390;49.302;9.306;2023-04-03T05:18:50;2.20;91.00
8707;DHT22;4390;49.302;9.306;2023-04-03T05:21:20;2.10;91.00
8707;DHT22;4390;49.302;9.306;2023-04-03T05:23:50;2.10;91.10
8707;DHT22;4390;49.302;9.306;2023-04-03T05:26:18;2.10;91.00
8707;DHT22;4390;49.302;9.306;2023-04-03T05:28:47;1.90;91.30
8707;DHT22;4390;49.302;9.306;2023-04-03T05:31:15;1.80;91.80
8707;DHT22;4390;49.302;9.306;2023-04-03T05:33:42;1.80;92.00
8707;DHT22;4390;49.302;9.306;2023-04-03T05:36:14;1.70;92.00
8707;DHT22;4390;49.302;9.306;2023-04-03T05:38:44;1.60;92.20
8707;DHT22;4390;49.302;9.306;2023-04-03T05:41:12;1.40;93.00
8707;DHT22;4390;49.302;9.306;2023-04-03T05:43:40;1.40;93.30
8707;DHT22;4390;49.302;9.306;2023-04-03T05:46:11;1.40;93.50
8707;DHT22;4390;49.302;9.306;2023-04-03T05:48:39;1.40;93.50
8707;DHT22;4390;49.302;9.306;2023-04-03T05:51:18;1.60;93.60
8707;DHT22;4390;49.302;9.306;2023-04-03T05:53:48;1.70;93.40
8707;DHT22;4390;49.302;9.306;2023-04-03T05:56:17;1.80;93.50
8707;DHT22;4390;49.302;9.306;2023-04-03T05:58:44;1.90;93.30
8707;DHT22;4390;49.302;9.306;2023-04-03T06:01:11;1.90;93.40
8707;DHT22;4390;49.302;9.306;2023-04-03T06:03:38;2.10;93.30
8707;DHT22;4390;49.302;9.306;2023-04-03T06:06:12;2.40;93.10
8707;DHT22;4390;49.302;9.306;2023-04-03T06:08:39;2.50;92.60
8707;DHT22;4390;49.302;9.306;2023-04-03T06:11:06;2.50;92.50
8707;DHT22;4390;49.302;9.306;2023-04-03T06:13:35;2.50;92.40
8707;DHT22;4390;49.302;9.306;2023-04-03T06:16:01;2.50;92.60
8707;DHT22;4390;49.302;9.306;2023-04-03T06:18:28;2.50;92.50
8707;DHT22;4390;49.302;9.306;2023-04-03T06:20:56;2.50;92.90
8707;DHT22;4390;49.302;9.306;2023-04-03T06:23:24;2.50;93.00
8707;DHT22;4390;49.302;9.306;2023-04-03T06:25:51;2.60;93.10
8707;DHT22;4390;49.302;9.306;2023-04-03T06:28:18;2.60;93.00
8707;DHT22;4390;49.302;9.306;2023-04-03T06:30:45;2.70;93.10
8707;DHT22;4390;49.302;9.306;2023-04-03T06:33:12;2.70;93.00
8707;DHT22;4390;49.302;9.306;2023-04-03T06:35:39;2.70;93.40
8707;DHT22;4390;49.302;9.306;2023-04-03T06:38:06;2.80;93.50
8707;DHT22;4390;49.302;9.306;2023-04-03T06:40:36;2.90;93.30
8707;DHT22;4390;49.302;9.306;2023-04-03T06:43:03;2.80;93.80
8707;DHT22;4390;49.302;9.306;2023-04-03T06:45:29;2.70;94.10
8707;DHT22;4390;49.302;9.306;2023-04-03T06:47:56;2.70;94.10
8707;DHT22;4390;49.302;9.306;2023-04-03T06:50:23;2.70;94.30
8707;DHT22;4390;49.302;9.306;2023-04-03T06:52:49;2.90;94.20
8707;DHT22;4390;49.302;9.306;2023-04-03T06:55:16;3.10;93.80
8707;DHT22;4390;49.302;9.306;2023-04-03T06:57:44;3.00;93.30
8707;DHT22;4390;49.302;9.306;2023-04-03T07:00:11;2.90;93.90
8707;DHT22;4390;49.302;9.306;2023-04-03T07:02:38;2.80;94.00
8707;DHT22;4390;49.302;9.306;2023-04-03T07:05:05;2.70;93.90
8707;DHT22;4390;49.302;9.306;2023-04-03T07:07:32;2.80;94.20
8707;DHT22;4390;49.302;9.306;2023-04-03T07:10:00;3.00;94.20
8707;DHT22;4390;49.302;9.306;2023-04-03T07:12:27;3.20;93.80
8707;DHT22;4390;49.302;9.306;2023-04-03T07:14:54;3.30;93.30
8707;DHT22;4390;49.302;9.306;2023-04-03T07:17:21;3.30;93.20
8707;DHT22;4390;49.302;9.306;2023-04-03T07:19:47;3.50;93.30
8707;DHT22;4390;49.302;9.306;2023-04-03T07:22:14;3.70;91.50
8707;DHT22;4390;49.302;9.306;2023-04-03T07:24:41;3.70;90.90
8707;DHT22;4390;49.302;9.306;2023-04-03T07:27:08;3.80;90.30
8707;DHT22;4390;49.302;9.306;2023-04-03T07:29:35;3.80;90.10
8707;DHT22;4390;49.302;9.306;2023-04-03T07:32:02;3.70;89.40
8707;DHT22;4390;49.302;9.306;2023-04-03T07:34:29;3.50;89.30
8707;DHT22;4390;49.302;9.306;2023-04-03T07:36:57;3.50;89.40
8707;DHT22;4390;49.302;9.306;2023-04-03T07:39:24;3.60;89.00
8707;DHT22;4390;49.302;9.306;2023-04-03T07:41:51;3.60;88.60
8707;DHT22;4390;49.302;9.306;2023-04-03T07:44:18;3.70;88.70
8707;DHT22;4390;49.302;9.306;2023-04-03T07:46:45;3.60;88.70
8707;DHT22;4390;49.302;9.306;2023-04-03T07:49:11;3.70;88.90
8707;DHT22;4390;49.302;9.306;2023-04-03T07:51:38;3.80;88.40
8707;DHT22;4390;49.302;9.306;2023-04-03T07:54:06;3.90;88.00
8707;DHT22;4390;49.302;9.306;2023-04-03T07:56:33;3.90;87.50
8707;DHT22;4390;49.302;9.306;2023-04-03T07:58:59;3.90;87.70
8707;DHT22;4390;49.302;9.306;2023-04-03T08:01:27;4.10;87.60
8707;DHT22;4390;49.302;9.306;2023-04-03T08:03:54;4.10;87.40
8707;DHT22;4390;49.302;9.306;2023-04-03T08:06:21;4.10;87.90
8707;DHT22;4390;49.302;9.306;2023-04-03T08:09:03;4.30;87.60
8707;DHT22;4390;49.302;9.306;2023-04-03T08:11:30;4.20;86.70
8707;DHT22;4390;49.302;9.306;2023-04-03T08:13:57;4.30;86.30
8707;DHT22;4390;49.302;9.306;2023-04-03T08:16:25;4.40;86.40
8707;DHT22;4390;49.302;9.306;2023-04-03T08:18:54;4.50;85.80
8707;DHT22;4390;49.302;9.306;2023-04-03T08:21:21;4.60;85.70
8707;DHT22;4390;49.302;9.306;2023-04-03T08:23:49;4.80;86.00
8707;DHT22;4390;49.302;9.306;2023-04-03T08:26:20;5.00;85.60
8707;DHT22;4390;49.302;9.306;2023-04-03T08:28:48;5.10;85.40
8707;DHT22;4390;49.302;9.306;2023-04-03T08:31:18;5.30;84.70
8707;DHT22;4390;49.302;9.306;2023-04-03T08:33:46;5.50;84.00
8707;DHT22;4390;49.302;9.306;2023-04-03T08:36:19;5.70;83.60
8707;DHT22;4390;49.302;9.306;2023-04-03T08:38:50;5.90;83.30
8707;DHT22;4390;49.302;9.306;2023-04-03T08:41:34;5.80;83.30
8707;DHT22;4390;49.302;9.306;2023-04-03T08:50:04;5.50;84.40
8707;DHT22;4390;49.302;9.306;2023-04-03T08:52:55;5.70;84.20
8707;DHT22;4390;49.302;9.306;2023-04-03T08:55:27;5.80;83.60
8707;DHT22;4390;49.302;9.306;2023-04-03T08:58:03;5.60;82.70
8707;DHT22;4390;49.302;9.306;2023-04-03T09:00:58;5.40;82.80
8707;DHT22;4390;49.302;9.306;2023-04-03T09:03:28;5.40;83.40
8707;DHT22;4390;49.302;9.306;2023-04-03T09:08:43;5.60;82.20
8707;DHT22;4390;49.302;9.306;2023-04-03T09:13:57;5.70;82.20
8707;DHT22;4390;49.302;9.306;2023-04-03T09:16:28;5.50;82.40
8707;DHT22;4390;49.302;9.306;2023-04-03T09:19:15;5.40;82.80
8707;DHT22;4390;49.302;9.306;2023-04-03T09:21:48;5.40;83.30
8707;DHT22;4390;49.302;9.306;2023-04-03T09:24:16;5.70;82.70
8707;DHT22;4390;49.302;9.306;2023-04-03T09:26:48;6.00;82.60
8707;DHT22;4390;49.302;9.306;2023-04-03T09:29:20;6.10;82.80
8707;DHT22;4390;49.302;9.306;2023-04-03T09:31:50;6.20;83.00
8707;DHT22;4390;49.302;9.306;2023-04-03T09:34:36;6.10;82.40
8707;DHT22;4390;49.302;9.306;2023-04-03T09:37:04;6.00;82.30
8707;DHT22;4390;49.302;9.306;2023-04-03T09:39:53;6.20;82.80
8707;DHT22;4390;49.302;9.306;2023-04-03T09:42:25;6.90;81.70
8707;DHT22;4390;49.302;9.306;2023-04-03T09:44:55;6.70;81.40
8707;DHT22;4390;49.302;9.306;2023-04-03T09:47:31;6.60;81.60
8707;DHT22;4390;49.302;9.306;2023-04-03T09:52:40;6.60;81.60
8707;DHT22;4390;49.302;9.306;2023-04-03T09:55:25;6.80;81.60
8707;DHT22;4390;49.302;9.306;2023-04-03T09:58:02;7.00;81.20
8707;DHT22;4390;49.302;9.306;2023-04-03T10:00:34;7.30;81.60
8707;DHT22;4390;49.302;9.306;2023-04-03T10:03:08;7.40;81.20
8707;DHT22;4390;49.302;9.306;2023-04-03T10:05:49;7.40;80.60
8707;DHT22;4390;49.302;9.306;2023-04-03T10:08:22;7.30;80.70
8707;DHT22;4390;49.302;9.306;2023-04-03T10:13:33;7.50;81.40
8707;DHT22;4390;49.302;9.306;2023-04-03T10:16:20;7.60;80.50
8707;DHT22;4390;49.302;9.306;2023-04-03T10:21:29;8.30;80.60
8707;DHT22;4390;49.302;9.306;2023-04-03T10:24:11;8.50;78.70
8707;DHT22;4390;49.302;9.306;2023-04-03T10:34:44;7.60;79.90
8707;DHT22;4390;49.302;9.306;2023-04-03T10:37:48;7.80;79.10
8707;DHT22;4390;49.302;9.306;2023-04-03T10:40:30;7.90;78.60
8707;DHT22;4390;49.302;9.306;2023-04-03T10:43:32;7.90;78.50
8707;DHT22;4390;49.302;9.306;2023-04-03T10:46:22;7.70;78.50
8707;DHT22;4390;49.302;9.306;2023-04-03T10:54:24;7.20;78.00
8707;DHT22;4390;49.302;9.306;2023-04-03T10:56:55;7.30;78.50
8707;DHT22;4390;49.302;9.306;2023-04-03T11:05:03;7.10;78.90
8707;DHT22;4390;49.302;9.306;2023-04-03T11:07:39;7.20;79.20
8707;DHT22;4390;49.302;9.306;2023-04-03T11:10:40;7.10;79.30
8707;DHT22;4390;49.302;9.306;2023-04-03T11:15:40;8.20;78.00
8707;DHT22;4390;49.302;9.306;2023-04-03T11:18:14;8.50;76.50
8707;DHT22;4390;49.302;9.306;2023-04-03T11:20:47;8.50;76.60
8707;DHT22;4390;49.302;9.306;2023-04-03T11:23:29;8.10;76.20
8707;DHT22;4390;49.302;9.306;2023-04-03T11:26:18;7.60;77.10
8707;DHT22;4390;49.302;9.306;2023-04-03T11:28:45;7.40;77.90
8707;DHT22;4390;49.302;9.306;2023-04-03T11:36:53;7.90;77.90
8707;DHT22;4390;49.302;9.306;2023-04-03T11:39:24;8.10;77.10
8707;DHT22;4390;49.302;9.306;2023-04-03T11:41:55;8.20;76.70
8707;DHT22;4390;49.302;9.306;2023-04-03T11:44:41;8.60;76.80
8707;DHT22;4390;49.302;9.306;2023-04-03T11:47:43;8.70;75.90
8707;DHT22;4390;49.302;9.306;2023-04-03T11:50:05;8.40;76.10
8707;DHT22;4390;49.302;9.306;2023-04-03T12:35:30;7.70;74.90
8707;DHT22;4390;49.302;9.306;2023-04-03T12:46:54;9.00;72.00
8707;DHT22;4390;49.302;9.306;2023-04-03T12:49:39;8.60;72.90
8707;DHT22;4390;49.302;9.306;2023-04-03T12:52:41;8.30;72.60
8707;DHT22;4390;49.302;9.306;2023-04-03T12:55:21;8.40;72.30
8707;DHT22;4390;49.302;9.306;2023-04-03T12:57:51;8.20;73.20
8707;DHT22;4390;49.302;9.306;2023-04-03T13:00:30;8.50;73.00
8707;DHT22;4390;49.302;9.306;2023-04-03T13:03:01;8.60;72.00
8707;DHT22;4390;49.302;9.306;2023-04-03T13:05:30;8.60;72.20
8707;DHT22;4390;49.302;9.306;2023-04-03T13:08:12;8.30;72.40
8707;DHT22;4390;49.302;9.306;2023-04-03T13:13:27;9.10;71.60
8707;DHT22;4390;49.302;9.306;2023-04-03T13:15:54;8.90;71.40
8707;DHT22;4390;49.302;9.306;2023-04-03T13:21:01;8.60;72.00
8707;DHT22;4390;49.302;9.306;2023-04-03T13:23:36;8.80;71.30
8707;DHT22;4390;49.302;9.306;2023-04-03T13:26:05;8.40;71.00
8707;DHT22;4390;49.302;9.306;2023-04-03T13:28:36;8.30;71.40
8707;DHT22;4390;49.302;9.306;2023-04-03T13:39:25;9.30;69.50
8707;DHT22;4390;49.302;9.306;2023-04-03T13:41:58;9.50;70.30
8707;DHT22;4390;49.302;9.306;2023-04-03T13:44:35;9.70;69.70
8707;DHT22;4390;49.302;9.306;2023-04-03T13:49:44;9.60;69.80
8707;DHT22;4390;49.302;9.306;2023-04-03T13:52:31;10.00;69.60
8707;DHT22;4390;49.302;9.306;2023-04-03T13:55:16;10.10;68.90
8707;DHT22;4390;49.302;9.306;2023-04-03T13:57:55;10.30;69.30
8707;DHT22;4390;49.302;9.306;2023-04-03T14:03:42;10.40;67.60
8707;DHT22;4390;49.302;9.306;2023-04-03T14:06:14;9.90;67.30
8707;DHT22;4390;49.302;9.306;2023-04-03T14:08:45;9.90;67.50
8707;DHT22;4390;49.302;9.306;2023-04-03T14:11:18;9.90;67.70
8707;DHT22;4390;49.302;9.306;2023-04-03T14:13:52;9.90;68.40
8707;DHT22;4390;49.302;9.306;2023-04-03T14:16:24;9.90;68.80
8707;DHT22;4390;49.302;9.306;2023-04-03T14:18:55;10.00;69.00
8707;DHT22;4390;49.302;9.306;2023-04-03T14:21:27;9.70;68.20
8707;DHT22;4390;49.302;9.306;2023-04-03T14:23:53;9.60;69.10
8707;DHT22;4390;49.302;9.306;2023-04-03T14:26:23;9.50;68.70
8707;DHT22;4390;49.302;9.306;2023-04-03T14:28:59;9.80;69.00
8707;DHT22;4390;49.302;9.306;2023-04-03T14:31:33;10.10;68.00
8707;DHT22;4390;49.302;9.306;2023-04-03T14:34:00;10.30;68.50
8707;DHT22;4390;49.302;9.306;2023-04-03T14:36:29;10.50;67.80
8707;DHT22;4390;49.302;9.306;2023-04-03T14:38:58;10.50;67.80
8707;DHT22;4390;49.302;9.306;2023-04-03T14:41:26;10.20;68.00
8707;DHT22;4390;49.302;9.306;2023-04-03T14:43:54;10.20;68.10
8707;DHT22;4390;49.302;9.306;2023-04-03T14:46:39;10.30;67.40
8707;DHT22;4390;49.302;9.306;2023-04-03T14:49:25;10.10;68.30
8707;DHT22;4390;49.302;9.306;2023-04-03T14:51:58;10.10;68.40
8707;DHT22;4390;49.302;9.306;2023-04-03T14:54:28;9.90;68.70
8707;DHT22;4390;49.302;9.306;2023-04-03T14:57:00;9.90;68.10
8707;DHT22;4390;49.302;9.306;2023-04-03T14:59:29;9.70;67.90
8707;DHT22;4390;49.302;9.306;2023-04-03T15:01:56;9.70;68.20
8707;DHT22;4390;49.302;9.306;2023-04-03T15:04:24;9.60;68.10
8707;DHT22;4390;49.302;9.306;2023-04-03T15:06:54;9.70;68.00
8707;DHT22;4390;49.302;9.306;2023-04-03T15:09:24;9.80;67.90
8707;DHT22;4390;49.302;9.306;2023-04-03T15:11:53;9.70;67.60
8707;DHT22;4390;49.302;9.306;2023-04-03T15:14:23;9.40;67.80
8707;DHT22;4390;49.302;9.306;2023-04-03T15:17:04;9.30;67.90
8707;DHT22;4390;49.302;9.306;2023-04-03T15:19:38;9.60;68.30
8707;DHT22;4390;49.302;9.306;2023-04-03T15:22:06;9.60;67.70
8707;DHT22;4390;49.302;9.306;2023-04-03T15:24:33;9.50;68.20
8707;DHT22;4390;49.302;9.306;2023-04-03T15:27:00;9.30;68.10
8707;DHT22;4390;49.302;9.306;2023-04-03T15:29:27;9.10;68.60
8707;DHT22;4390;49.302;9.306;2023-04-03T15:31:57;9.20;69.10
8707;DHT22;4390;49.302;9.306;2023-04-03T15:34:28;9.50;69.20
8707;DHT22;4390;49.302;9.306;2023-04-03T15:36:55;9.60;68.70
8707;DHT22;4390;49.302;9.306;2023-04-03T15:39:25;9.50;68.30
8707;DHT22;4390;49.302;9.306;2023-04-03T15:41:53;9.50;68.20
8707;DHT22;4390;49.302;9.306;2023-04-03T15:44:20;9.40;68.10
8707;DHT22;4390;49.302;9.306;2023-04-03T15:46:48;9.10;68.20
8707;DHT22;4390;49.302;9.306;2023-04-03T15:49:19;9.10;68.00
8707;DHT22;4390;49.302;9.306;2023-04-03T15:51:47;9.20;68.30
8707;DHT22;4390;49.302;9.306;2023-04-03T15:54:14;9.50;68.40
8707;DHT22;4390;49.302;9.306;2023-04-03T15:56:41;9.60;67.40
8707;DHT22;4390;49.302;9.306;2023-04-03T15:59:08;9.30;67.70
8707;DHT22;4390;49.302;9.306;2023-04-03T16:01:36;9.30;67.90
8707;DHT22;4390;49.302;9.306;2023-04-03T16:04:04;9.30;67.60
8707;DHT22;4390;49.302;9.306;2023-04-03T16:06:31;9.40;67.60
8707;DHT22;4390;49.302;9.306;2023-04-03T16:08:59;9.20;67.50
8707;DHT22;4390;49.302;9.306;2023-04-03T16:11:27;8.90;67.60
8707;DHT22;4390;49.302;9.306;2023-04-03T16:13:54;8.70;67.90
8707;DHT22;4390;49.302;9.306;2023-04-03T16:16:22;8.70;68.10
8707;DHT22;4390;49.302;9.306;2023-04-03T16:18:50;8.70;68.50
8707;DHT22;4390;49.302;9.306;2023-04-03T16:21:17;8.80;67.70
8707;DHT22;4390;49.302;9.306;2023-04-03T16:23:44;8.90;67.50
8707;DHT22;4390;49.302;9.306;2023-04-03T16:26:14;8.80;67.40
8707;DHT22;4390;49.302;9.306;2023-04-03T16:28:41;8.30;67.80
8707;DHT22;4390;49.302;9.306;2023-04-03T16:31:08;8.20;68.70
8707;DHT22;4390;49.302;9.306;2023-04-03T16:33:35;8.30;69.30
8707;DHT22;4390;49.302;9.306;2023-04-03T16:36:04;8.50;68.60
8707;DHT22;4390;49.302;9.306;2023-04-03T16:38:31;8.30;68.20
8707;DHT22;4390;49.302;9.306;2023-04-03T16:40:58;8.20;68.10
8707;DHT22;4390;49.302;9.306;2023-04-03T16:43:28;8.10;67.70
8707;DHT22;4390;49.302;9.306;2023-04-03T16:45:56;8.20;68.70
8707;DHT22;4390;49.302;9.306;2023-04-03T16:48:23;8.20;68.00
8707;DHT22;4390;49.302;9.306;2023-04-03T16:50:50;7.80;67.70
8707;DHT22;4390;49.302;9.306;2023-04-03T16:53:21;7.70;68.20
8707;DHT22;4390;49.302;9.306;2023-04-03T16:56:03;7.70;68.30
8707;DHT22;4390;49.302;9.306;2023-04-03T16:58:30;7.80;68.50
8707;DHT22;4390;49.302;9.306;2023-04-03T17:00:56;7.80;67.90
8707;DHT22;4390;49.302;9.306;2023-04-03T17:03:23;8.00;68.00
8707;DHT22;4390;49.302;9.306;2023-04-03T17:05:52;7.60;68.00
8707;DHT22;4390;49.302;9.306;2023-04-03T17:08:19;7.00;68.30
8707;DHT22;4390;49.302;9.306;2023-04-03T17:10:45;6.70;69.40
8707;DHT22;4390;49.302;9.306;2023-04-03T17:13:13;6.60;70.10
8707;DHT22;4390;49.302;9.306;2023-04-03T17:15:41;6.50;70.10
8707;DHT22;4390;49.302;9.306;2023-04-03T17:18:08;6.20;70.60
8707;DHT22;4390;49.302;9.306;2023-04-03T17:20:36;6.00;70.90
8707;DHT22;4390;49.302;9.306;2023-04-03T17:23:05;6.00;71.10
8707;DHT22;4390;49.302;9.306;2023-04-03T17:25:32;6.20;71.40
8707;DHT22;4390;49.302;9.306;2023-04-03T17:27:59;6.20;71.20
8707;DHT22;4390;49.302;9.306;2023-04-03T17:30:26;6.50;71.40
8707;DHT22;4390;49.302;9.306;2023-04-03T17:32:53;6.40;70.80
8707;DHT22;4390;49.302;9.306;2023-04-03T17:35:21;6.20;70.90
8707;DHT22;4390;49.302;9.306;2023-04-03T17:37:48;6.10;71.10
8707;DHT22;4390;49.302;9.306;2023-04-03T17:40:16;6.20;71.20
8707;DHT22;4390;49.302;9.306;2023-04-03T17:42:44;6.20;71.50
8707;DHT22;4390;49.302;9.306;2023-04-03T17:45:11;6.30;71.40
8707;DHT22;4390;49.302;9.306;2023-04-03T17:47:42;6.20;72.20
8707;DHT22;4390;49.302;9.306;2023-04-03T17:50:12;6.20;72.30
8707;DHT22;4390;49.302;9.306;2023-04-03T17:52:41;6.20;71.70
8707;DHT22;4390;49.302;9.306;2023-04-03T17:55:09;6.00;71.80
8707;DHT22;4390;49.302;9.306;2023-04-03T17:57:36;6.10;72.00
8707;DHT22;4390;49.302;9.306;2023-04-03T18:00:10;6.10;71.40
8707;DHT22;4390;49.302;9.306;2023-04-03T18:02:43;6.10;71.70
8707;DHT22;4390;49.302;9.306;2023-04-03T18:05:10;6.10;71.40
8707;DHT22;4390;49.302;9.306;2023-04-03T18:07:37;5.80;71.30
8707;DHT22;4390;49.302;9.306;2023-04-03T18:10:06;5.70;72.20
8707;DHT22;4390;49.302;9.306;2023-04-03T18:12:35;5.60;72.50
8707;DHT22;4390;49.302;9.306;2023-04-03T18:15:04;5.60;72.40
8707;DHT22;4390;49.302;9.306;2023-04-03T18:17:36;5.70;72.30
8707;DHT22;4390;49.302;9.306;2023-04-03T18:20:26;5.80;72.70
8707;DHT22;4390;49.302;9.306;2023-04-03T18:22:56;5.50;73.20
8707;DHT22;4390;49.302;9.306;2023-04-03T18:25:23;5.30;73.50
8707;DHT22;4390;49.302;9.306;2023-04-03T18:27:50;5.20;73.70
8707;DHT22;4390;49.302;9.306;2023-04-03T18:30:17;5.30;74.10
8707;DHT22;4390;49.302;9.306;2023-04-03T18:32:44;5.20;73.80
8707;DHT22;4390;49.302;9.306;2023-04-03T18:35:11;5.00;74.20
8707;DHT22;4390;49.302;9.306;2023-04-03T18:37:38;4.80;74.60
8707;DHT22;4390;49.302;9.306;2023-04-03T18:40:05;4.80;74.80
8707;DHT22;4390;49.302;9.306;2023-04-03T18:42:32;4.90;74.60